Detall de PIREP

Printer-friendly versionPDF version

[2012/03/10 14:24:00]
Flight IATA:CT1004
Pilot Number:037
Company ICAO:CAT
Aircraft Type:B752/E
PAX:123
Departing Airport: LEBL
Destination Airport: LKPR
Alternate Airport:LKTB
Online: VATSIM
Route:AGENA UM985 SUMIR UM726 KOGOL UN871 ABABI UZ39 GOSEK
Flight Level:F390
No Slew and time accel
No pause
Crash detect
Detect pilot in Cockpit between each 30 and 45 minutes
14:24 Zero fuel Weight: 165313 Lbs, Fuel Weight: 28282 Lbs
14:24 VATSIM:LEBL 101400Z 22013KT CAVOK 16/05 Q1027 NOSIG
14:24 VATSIM:LKPR 101400Z 24016KT 9999 BKN046 09/01 Q1030 NOSIG
14:43 Parking Brakes off
14:49 Take-off
14:49 Take off Weight: 192475 Lbs
14:49 Wind: 212º @ 011 Knots Heading: 242º
14:49 POS N41º 17´ 52´´ E002º 04´ 53´´
14:49 Flaps:3 at 175 Knots
14:49 Flaps:2 at 181 Knots
14:49 Gear Up: 189 Knots
14:50 Flaps:1 at 213 Knots
14:51 Flaps:0 at 213 Knots
15:04 Wind:231º@017 Knots Heading: 033º Ground Speed: 481 Knots Altitude 30587 ft
15:10 TOC
15:10 Fuel Weight: 22525 Lb
15:19 Wind:331º@029 Knots Heading: 069º Ground Speed: 465 Knots Altitude 39376 ft
15:34 Wind:352º@089 Knots Heading: 031º Ground Speed: 392 Knots Altitude 39320 ft
15:49 Wind:009º@050 Knots Heading: 051º Ground Speed: 421 Knots Altitude 39330 ft
16:04 Wind:160º@011 Knots Heading: 032º Ground Speed: 465 Knots Altitude 39448 ft
16:19 Wind:093º@010 Knots Heading: 005º Ground Speed: 457 Knots Altitude 39471 ft
16:35 Wind:295º@014 Knots Heading: 034º Ground Speed: 457 Knots Altitude 39570 ft
16:35 TOD
16:35 Fuel Weight: 12853 Lb
16:50 Wind:257º@023 Knots Heading: 034º Ground Speed: 308 Knots Altitude 13602 ft
16:58 Flaps:1 at 206 Knots
16:58 Flaps:2 at 195 Knots
16:59 Flaps:3 at 175 Knots
16:59 Gear Down: 175 Knots
17:00 Flaps:4 at 151 Knots
17:01 Flaps:5 at 144 Knots
17:01 Flaps:6 at 140 Knots
17:02 TouchDown:Rate -212 ft/min Speed: 127 Knots
17:03 VATSIM:LKPR 101630Z 24014KT 9999 SCT030 08/01 Q1029 NOSIG
17:03 Land
17:03 Wind:240º@014 Knots
17:03 Heading: 243º
17:03 Flight Duration: 02:14
17:03 Landing Weight: 176039 Lbs
17:03 POS N50º 06´ 40´´ E014º 15´ 27´´
17:07 Parking brakes on
17:07 Block to Block Duration: 02:24
17:07 Final Fuel: 10244 Lbls
17:07 Spent Fuel: 18037 Lbls
17:07 Flight Length: 690 NM
17:07 TOD Land Length: 59 NM

Exportar CSV

Powered by Drupal - Modified by Danger4k